Time;durP1;ratioP1;P1;durP2;ratioP2;P2;SDS_P1;SDS_P2;PMS_P1;PMS_P2;Temp;Humidity;BMP_temperature;BMP_pressure;BME280_temperature;BME280_humidity;BME280_pressure;Samples;Min_cycle;Max_cycle;Signal;HPM_P1;HPM_P2
2022/07/21 00:03:26;;;;;;;3.10;1.70;;;;;;;23.29;47.18;99957.09;10524251;28;20102;-71
2022/07/21 00:08:27;;;;;;;2.83;1.95;;;;;;;23.55;46.38;99969.13;10541706;28;20071;-71
2022/07/21 00:13:31;;;;;;;3.08;1.77;;;;;;;23.38;46.92;99975.09;10522940;28;20044;-71
2022/07/21 00:18:33;;;;;;;2.35;1.63;;;;;;;23.33;46.61;99978.16;10541639;28;20040;-71
2022/07/21 00:23:36;;;;;;;2.97;1.88;;;;;;;23.50;46.43;99970.47;10529561;22;20055;-74
2022/07/21 00:28:39;;;;;;;3.45;1.92;;;;;;;23.38;46.56;99967.88;10496891;28;20048;-74
2022/07/21 00:33:41;;;;;;;2.20;1.80;;;;;;;23.32;46.46;99957.66;10497024;28;20048;-75
2022/07/21 00:38:43;;;;;;;3.83;1.90;;;;;;;23.37;45.75;99954.59;10515699;28;20486;-75
2022/07/21 00:43:47;;;;;;;2.05;1.85;;;;;;;23.47;45.58;99951.97;10496392;28;20064;-74
2022/07/21 00:48:49;;;;;;;2.75;2.08;;;;;;;23.51;45.40;99948.06;10516009;28;20052;-74
2022/07/21 00:53:51;;;;;;;3.47;1.77;;;;;;;23.47;45.83;99962.72;10492612;28;20559;-74
2022/07/21 00:58:53;;;;;;;7.07;2.00;;;;;;;23.37;45.85;99963.50;10504939;28;20519;-75
2022/07/21 01:03:56;;;;;;;3.38;1.85;;;;;;;23.23;46.43;99958.47;10486901;28;20040;-75
2022/07/21 01:08:58;;;;;;;3.15;2.00;;;;;;;23.15;46.30;100009.22;10505557;28;20055;-73
2022/07/21 01:14:01;;;;;;;3.13;1.50;;;;;;;22.90;46.72;100037.25;10504649;28;20033;-74
2022/07/21 01:19:06;;;;;;;4.60;1.85;;;;;;;23.17;45.69;100001.91;10486958;28;20473;-74
2022/07/21 01:24:08;;;;;;;3.88;1.77;;;;;;;23.55;43.77;100028.16;10486177;28;20417;-75
2022/07/21 01:29:11;;;;;;;2.42;1.63;;;;;;;23.76;42.96;100022.75;10505066;28;20509;-73
2022/07/21 01:34:13;;;;;;;3.10;1.35;;;;;;;23.61;44.08;100016.88;10486258;28;20067;-74
2022/07/21 01:44:35;;;;;;;2.05;1.50;;;;;;;23.62;44.34;100026.63;10503969;28;20130;-74
2022/07/21 01:49:36;;;;;;;2.42;1.50;;;;;;;23.25;45.36;100034.28;10486003;28;20044;-74
2022/07/21 01:54:38;;;;;;;2.40;1.50;;;;;;;23.24;45.47;100027.22;10484484;28;20048;-73
2022/07/21 01:59:40;;;;;;;2.78;1.70;;;;;;;23.24;45.63;100050.47;10502144;28;20044;-73
2022/07/21 02:04:41;;;;;;;4.30;1.95;;;;;;;23.02;46.13;100052.31;10503380;28;20041;-73
2022/07/21 02:09:43;;;;;;;3.15;1.83;;;;;;;22.80;46.57;100057.69;10503164;28;20478;-72
2022/07/21 02:14:45;;;;;;;3.78;1.83;;;;;;;22.70;47.02;100052.25;10501973;28;20047;-73
2022/07/21 02:19:46;;;;;;;7.78;1.42;;;;;;;22.62;47.69;100039.50;10502148;28;20047;-73
2022/07/21 02:24:48;;;;;;;6.25;1.73;;;;;;;22.32;47.96;100055.38;10502137;28;20037;-74
2022/07/21 02:29:50;;;;;;;3.05;1.70;;;;;;;22.29;48.08;100053.78;10501697;28;20401;-73
2022/07/21 02:34:51;;;;;;;5.97;2.10;;;;;;;22.39;47.56;100059.22;10500883;28;20485;-73
2022/07/21 02:39:53;;;;;;;4.28;3.40;;;;;;;22.53;48.25;100071.50;10482911;28;20052;-74
2022/07/21 02:44:55;;;;;;;3.97;3.60;;;;;;;22.69;48.72;100073.81;10501498;28;20405;-73
2022/07/21 02:49:56;;;;;;;5.32;4.28;;;;;;;22.97;48.79;100081.31;10482843;28;20044;-74
2022/07/21 02:54:58;;;;;;;5.75;3.78;;;;;;;23.16;49.01;100078.81;10483887;28;20048;-74
2022/07/21 03:00:00;;;;;;;6.65;5.15;;;;;;;23.10;49.69;100086.50;10482820;28;20045;-73
2022/07/21 03:05:02;;;;;;;7.20;5.95;;;;;;;23.19;50.35;100100.97;10481993;28;20047;-73
2022/07/21 03:10:04;;;;;;;9.27;7.32;;;;;;;23.59;51.04;100103.84;10500485;28;20036;-74
2022/07/21 03:15:07;;;;;;;9.10;6.45;;;;;;;23.98;50.96;100098.75;10500197;28;20040;-74
2022/07/21 03:20:09;;;;;;;8.65;6.88;;;;;;;23.96;50.96;100096.22;10500611;28;20047;-74
2022/07/21 03:25:11;;;;;;;8.52;6.40;;;;;;;24.07;50.87;100103.31;10482233;28;20083;-73
2022/07/21 03:30:14;;;;;;;11.85;6.70;;;;;;;24.25;51.04;100108.91;10500122;28;20407;-73
2022/07/21 03:35:16;;;;;;;11.85;7.32;;;;;;;24.45;50.21;100104.53;10499914;28;20086;-74
2022/07/21 03:40:22;;;;;;;9.48;6.20;;;;;;;24.24;50.98;100112.59;10499168;28;20501;-74
2022/07/21 03:45:26;;;;;;;8.02;5.95;;;;;;;24.44;50.40;100111.75;10499831;28;20398;-73
2022/07/21 03:50:29;;;;;;;7.25;5.50;;;;;;;24.38;50.43;100112.25;10499180;28;20067;-74
2022/07/21 03:55:31;;;;;;;7.97;5.55;;;;;;;24.24;50.87;100116.13;10499218;28;20041;-74
2022/07/21 04:00:39;;;;;;;11.65;5.10;;;;;;;24.19;51.07;100122.91;10504523;28;20127;-73
2022/07/21 04:05:42;;;;;;;12.38;5.60;;;;;;;24.09;50.95;100128.22;10507479;28;20056;-73
2022/07/21 04:10:44;;;;;;;9.30;5.25;;;;;;;24.21;50.70;100128.97;10506636;28;20498;-74
2022/07/21 04:15:45;;;;;;;8.25;5.95;;;;;;;24.36;50.22;100133.88;10506321;28;20049;-74
2022/07/21 04:20:48;;;;;;;10.07;5.45;;;;;;;24.38;50.04;100145.34;10506574;28;20040;-74
2022/07/21 04:25:49;;;;;;;5.63;5.13;;;;;;;24.16;51.22;100151.72;10506100;28;20120;-73
2022/07/21 04:30:51;;;;;;;7.05;4.93;;;;;;;24.15;50.66;100152.69;10505808;28;20035;-74
2022/07/21 04:35:53;;;;;;;11.95;5.22;;;;;;;24.26;50.54;100154.47;10471346;28;20074;-73
2022/07/21 04:40:54;;;;;;;7.03;5.32;;;;;;;24.33;50.34;100165.50;10505482;28;20070;-73
2022/07/21 04:45:56;;;;;;;6.57;5.82;;;;;;;24.26;50.76;100161.66;10471437;28;20444;-75
2022/07/21 04:50:58;;;;;;;9.60;5.45;;;;;;;24.20;51.09;100162.19;10505414;28;20036;-73
2022/07/21 04:55:59;;;;;;;7.97;5.20;;;;;;;24.25;51.08;100171.53;10506355;28;20048;-73
2022/07/21 05:01:01;;;;;;;6.15;5.50;;;;;;;24.40;50.66;100164.88;10506574;28;20051;-73
2022/07/21 05:06:03;;;;;;;5.03;4.53;;;;;;;24.68;50.55;100151.69;10470965;28;20491;-74
2022/07/21 05:11:05;;;;;;;4.88;4.47;;;;;;;24.96;49.95;100168.88;10487419;28;20053;-73
2022/07/21 05:16:06;;;;;;;8.40;4.90;;;;;;;25.09;49.59;100166.81;10488124;28;20048;-73
2022/07/21 05:21:08;;;;;;;6.28;4.57;;;;;;;25.36;48.59;100174.22;10486317;28;20094;-73
2022/07/21 05:26:09;;;;;;;4.40;4.00;;;;;;;25.59;47.76;100190.13;10504270;28;20413;-73
2022/07/21 05:31:11;;;;;;;3.47;3.17;;;;;;;25.64;47.48;100182.47;10486721;28;20040;-73
2022/07/21 05:36:13;;;;;;;3.65;3.33;;;;;;;25.76;47.03;100169.69;10503637;28;20046;-73
2022/07/21 05:41:15;;;;;;;4.07;3.53;;;;;;;25.84;46.22;100178.78;10504173;28;20037;-73
2022/07/21 05:46:16;;;;;;;3.92;3.60;;;;;;;26.30;45.37;100174.47;10503428;28;20076;-72
2022/07/21 05:51:18;;;;;;;3.50;3.13;;;;;;;26.53;45.17;100180.38;10485671;28;20387;-72
2022/07/21 05:56:20;;;;;;;6.35;3.83;;;;;;;26.89;44.18;100170.56;10503437;28;20051;-74
2022/07/21 06:01:21;;;;;;;4.70;3.42;;;;;;;27.42;42.63;100167.09;10485766;28;20045;-72
2022/07/21 06:06:23;;;;;;;4.65;3.65;;;;;;;28.08;40.76;100162.28;10502801;28;20482;-73
2022/07/21 06:11:25;;;;;;;6.13;3.55;;;;;;;28.03;41.24;100165.47;10467723;28;20045;-73
2022/07/21 06:16:31;;;;;;;4.50;4.07;;;;;;;27.75;40.77;100164.72;10503154;28;20048;-73
2022/07/21 06:21:33;;;;;;;4.43;4.00;;;;;;;28.31;39.11;100170.69;10496654;22;20060;-71
2022/07/21 06:26:43;;;;;;;7.45;4.55;;;;;;;28.38;39.02;100174.50;10501049;28;20124;-70
2022/07/21 06:31:45;;;;;;;4.43;4.03;;;;;;;28.97;38.13;100180.88;10499814;28;20044;-71
2022/07/21 06:36:47;;;;;;;4.75;4.28;;;;;;;29.33;37.47;100183.34;10500798;28;20049;-71
2022/07/21 06:41:48;;;;;;;4.20;3.90;;;;;;;29.79;36.16;100168.34;10500987;28;20478;-71
2022/07/21 06:46:51;;;;;;;4.93;3.83;;;;;;;30.35;34.96;100179.31;10500375;28;20090;-71
2022/07/21 06:51:53;;;;;;;5.82;4.30;;;;;;;30.23;35.37;100178.00;10499056;28;20047;-69
2022/07/21 06:56:54;;;;;;;4.47;4.05;;;;;;;30.25;35.51;100175.97;10499241;28;20481;-70
2022/07/21 07:01:57;;;;;;;6.18;4.22;;;;;;;30.20;35.79;100179.19;10481234;28;20502;-70
2022/07/21 07:06:59;;;;;;;5.00;3.53;;;;;;;30.34;35.34;100169.50;10499996;28;20577;-69
2022/07/21 07:12:05;;;;;;;5.72;3.83;;;;;;;30.14;36.22;100182.56;10499691;28;20501;-70
2022/07/21 07:17:26;;;;;;;5.18;3.70;;;;;;;30.32;36.10;100182.38;10498190;28;20102;-70
2022/07/21 07:22:28;;;;;;;6.25;4.30;;;;;;;30.91;34.07;100188.31;10498130;28;20033;-70
2022/07/21 07:27:30;;;;;;;5.90;4.15;;;;;;;30.48;35.70;100195.91;10480661;28;20048;-70
2022/07/21 07:32:35;;;;;;;9.70;4.05;;;;;;;30.99;34.14;100198.28;10498940;28;20056;-70
2022/07/21 07:37:38;;;;;;;4.82;4.35;;;;;;;31.22;34.05;100198.34;10497316;28;20049;-70
2022/07/21 07:42:40;;;;;;;6.28;4.32;;;;;;;31.29;34.21;100205.63;10497472;28;20051;-69
2022/07/21 07:47:42;;;;;;;4.22;3.88;;;;;;;31.58;32.53;100212.25;10497998;28;20469;-70
2022/07/21 07:52:44;;;;;;;5.80;3.83;;;;;;;31.27;33.38;100202.22;10500488;28;20044;-70
2022/07/21 07:57:46;;;;;;;4.72;4.32;;;;;;;31.23;33.48;100200.03;10499328;28;20068;-70
2022/07/21 08:02:49;;;;;;;4.88;3.88;;;;;;;31.51;32.85;100194.97;10480327;28;20048;-70
2022/07/21 08:07:51;;;;;;;4.93;4.38;;;;;;;31.61;32.73;100204.59;10498361;28;20062;-70
2022/07/21 08:12:52;;;;;;;4.40;3.92;;;;;;;31.86;32.54;100199.81;10497072;28;20064;-70
2022/07/21 08:17:54;;;;;;;4.00;3.70;;;;;;;32.06;32.29;100202.88;10498879;28;20047;-70
2022/07/21 08:22:56;;;;;;;4.38;3.97;;;;;;;32.10;32.01;100206.09;10496785;28;20043;-70
2022/07/21 08:27:58;;;;;;;4.40;4.00;;;;;;;31.74;33.09;100211.25;10496664;28;20048;-69
2022/07/21 08:33:00;;;;;;;4.13;3.83;;;;;;;31.67;32.84;100204.88;10497310;28;20041;-69
2022/07/21 08:38:06;;;;;;;7.45;3.80;;;;;;;31.85;33.25;100203.56;10497098;28;20049;-70
2022/07/21 08:43:09;;;;;;;5.22;4.32;;;;;;;32.40;31.65;100199.66;10478485;28;20039;-71
2022/07/21 08:48:11;;;;;;;6.20;3.90;;;;;;;32.65;31.35;100202.97;10502687;28;20047;-70
2022/07/21 08:53:13;;;;;;;4.03;3.70;;;;;;;32.45;31.91;100204.56;10503976;28;20046;-70
2022/07/21 08:58:15;;;;;;;4.40;4.00;;;;;;;32.07;32.19;100206.44;10504476;28;20055;-70
2022/07/21 09:03:21;;;;;;;5.97;3.90;;;;;;;31.91;32.88;100223.72;10503308;28;20060;-70
2022/07/21 09:08:47;;;;;;;4.22;3.40;;;;;;;32.11;32.61;100214.03;10504284;28;20464;-70
2022/07/21 09:14:05;;;;;;;4.15;3.75;;;;;;;32.59;32.71;100216.50;10495647;28;20048;-70
2022/07/21 09:19:14;;;;;;;5.72;3.53;;;;;;;32.47;32.31;100218.81;10504184;28;20379;-70
2022/07/21 09:24:20;;;;;;;8.40;4.25;;;;;;;33.21;31.19;100207.06;10504846;28;20395;-71
2022/07/21 09:29:21;;;;;;;5.50;3.60;;;;;;;33.39;32.10;100212.94;10486517;28;20044;-70
2022/07/21 09:34:23;;;;;;;4.22;3.83;;;;;;;33.10;32.29;100220.13;10502546;28;20048;-71
2022/07/21 09:39:48;;;;;;;4.05;3.72;;;;;;;33.31;32.34;100215.78;10502573;28;20047;-71
2022/07/21 09:45:03;;;;;;;4.70;4.20;;;;;;;33.80;32.25;100223.22;10504232;28;20414;-71
2022/07/21 09:50:07;;;;;;;3.80;3.47;;;;;;;32.65;33.47;100218.44;10503015;28;20045;-70
2022/07/21 09:55:31;;;;;;;4.57;3.40;;;;;;;32.83;32.85;100208.03;10484678;28;20055;-71
2022/07/21 10:00:33;;;;;;;5.15;3.40;;;;;;;33.25;32.42;100211.06;10502485;28;20040;-71
2022/07/21 10:05:35;;;;;;;3.72;2.90;;;;;;;32.65;32.96;100215.72;10504028;28;20150;-69
2022/07/21 10:10:37;;;;;;;4.55;3.40;;;;;;;32.47;32.99;100210.66;10501415;28;20127;-70
2022/07/21 10:15:59;;;;;;;4.43;3.00;;;;;;;31.94;33.97;100211.66;10502676;28;20413;-69
2022/07/21 10:21:29;;;;;;;3.63;2.50;;;;;;;31.82;33.86;100214.75;10483718;28;20048;-69
2022/07/21 10:26:31;;;;;;;5.30;3.35;;;;;;;31.98;33.82;100213.81;10501333;28;20051;-69
2022/07/21 10:31:42;;;;;;;6.18;2.35;;;;;;;31.93;33.31;100218.13;10483582;28;20527;-69
2022/07/21 10:36:45;;;;;;;3.60;2.08;;;;;;;31.64;33.89;100212.34;10500272;28;20120;-69
2022/07/21 10:41:49;;;;;;;2.50;2.30;;;;;;;30.89;35.43;100209.34;10482085;28;20072;-70
2022/07/21 10:47:11;;;;;;;2.45;2.15;;;;;;;31.04;35.33;100210.31;10499581;28;20052;-71
2022/07/21 10:52:35;;;;;;;4.32;2.20;;;;;;;30.88;35.15;100221.25;10466492;28;20052;-71
2022/07/21 10:57:38;;;;;;;3.28;2.28;;;;;;;30.84;36.03;100238.91;10482002;28;20041;-71
2022/07/21 11:02:40;;;;;;;3.05;2.42;;;;;;;30.60;36.93;100256.06;10499532;28;20036;-70
2022/07/21 11:08:08;;;;;;;3.92;2.40;;;;;;;29.76;38.79;100235.59;10500138;28;20049;-70
2022/07/21 11:13:10;;;;;;;5.60;3.05;;;;;;;29.37;39.92;100244.28;10499115;28;20057;-70
2022/07/21 11:18:21;;;;;;;4.53;3.03;;;;;;;29.40;40.40;100255.63;10482572;28;20452;-70
2022/07/21 11:23:44;;;;;;;3.03;2.83;;;;;;;29.63;40.89;100268.59;10499915;28;20122;-70
2022/07/21 11:28:46;;;;;;;5.45;2.50;;;;;;;29.81;40.57;100266.59;10499214;28;20041;-70
2022/07/21 11:33:49;;;;;;;4.22;2.78;;;;;;;29.35;41.19;100262.53;10481551;28;20037;-70
2022/07/21 11:39:07;;;;;;;3.60;3.20;;;;;;;29.37;42.02;100265.94;10500824;28;20136;-70
2022/07/21 11:44:10;;;;;;;4.63;2.53;;;;;;;28.68;43.92;100270.50;10498529;28;20116;-71
2022/07/21 11:49:12;;;;;;;7.82;3.38;;;;;;;27.96;45.32;100277.88;10498401;28;20049;-71
2022/07/21 11:54:20;;;;;;;3.63;3.10;;;;;;;27.87;45.97;100290.44;10498886;28;20505;-72
2022/07/21 11:59:24;;;;;;;5.00;3.20;;;;;;;27.51;46.48;100307.59;10482646;28;20076;-72
2022/07/21 12:04:32;;;;;;;2.85;2.47;;;;;;;27.17;47.14;100305.47;10498317;28;20036;-72
2022/07/21 12:09:34;;;;;;;2.80;2.60;;;;;;;27.12;47.47;100295.13;10480014;28;20040;-73
2022/07/21 12:14:42;;;;;;;4.13;2.88;;;;;;;27.38;46.88;100287.19;10499560;28;20048;-72
2022/07/21 12:19:44;;;;;;;3.97;2.30;;;;;;;27.36;46.56;100294.59;10500612;28;20044;-72
2022/07/21 12:24:49;;;;;;;2.40;2.20;;;;;;;27.04;47.21;100297.69;10498240;22;20064;-70
2022/07/21 12:29:51;;;;;;;3.20;2.95;;;;;;;26.53;48.91;100296.28;10506904;28;20124;-70
2022/07/21 12:34:54;;;;;;;2.60;2.40;;;;;;;26.35;50.23;100296.16;10495346;28;20110;-70
2022/07/21 12:40:07;;;;;;;3.22;2.92;;;;;;;26.64;48.98;100301.50;10506457;28;20398;-70
2022/07/21 12:45:14;;;;;;;3.38;2.70;;;;;;;26.51;49.87;100294.72;10505626;28;20064;-70
2022/07/21 12:50:16;;;;;;;2.67;2.47;;;;;;;26.35;49.88;100301.53;10506609;28;20041;-71
2022/07/21 12:55:24;;;;;;;2.67;2.40;;;;;;;26.92;48.27;100307.81;10505301;28;20036;-71
2022/07/21 13:00:26;;;;;;;3.05;2.70;;;;;;;27.21;47.01;100303.34;10505846;28;20063;-71
2022/07/21 13:05:28;;;;;;;3.10;2.80;;;;;;;27.46;45.97;100299.94;10506107;28;20047;-71
2022/07/21 13:10:29;;;;;;;2.80;2.47;;;;;;;27.21;46.06;100303.34;10506964;28;20049;-71
2022/07/21 13:15:32;;;;;;;3.38;2.47;;;;;;;27.06;46.30;100297.56;10505846;28;20509;-71
2022/07/21 13:20:33;;;;;;;3.28;2.40;;;;;;;26.92;46.88;100278.16;10506557;28;20051;-71
2022/07/21 13:25:36;;;;;;;2.67;2.47;;;;;;;26.80;46.88;100278.47;10505064;28;20040;-71
2022/07/21 13:30:38;;;;;;;2.60;2.40;;;;;;;26.47;48.25;100248.34;10501774;28;20059;-69
2022/07/21 13:35:43;;;;;;;2.55;2.35;;;;;;;26.45;49.14;100233.31;10500093;28;20123;-70
2022/07/21 13:40:46;;;;;;;2.90;2.60;;;;;;;26.04;52.40;100246.97;10501929;28;20052;-70
2022/07/21 13:46:08;;;;;;;4.28;3.10;;;;;;;25.61;55.09;100258.13;10487022;28;20478;-71
2022/07/21 13:51:10;;;;;;;3.63;2.83;;;;;;;25.45;56.49;100242.50;10502316;28;20113;-71
2022/07/21 13:56:12;;;;;;;3.67;2.85;;;;;;;25.36;58.22;100243.34;10501723;28;20044;-72
2022/07/21 14:01:14;;;;;;;3.50;3.15;;;;;;;25.20;57.62;100265.41;10482175;28;20043;-71
2022/07/21 14:06:17;;;;;;;2.80;2.60;;;;;;;24.85;58.73;100260.44;10483240;28;20041;-71
2022/07/21 14:11:19;;;;;;;3.38;3.10;;;;;;;24.69;59.73;100257.38;10500822;28;20048;-72
2022/07/21 14:16:21;;;;;;;5.32;2.92;;;;;;;24.69;59.38;100277.03;10500395;28;20040;-71
2022/07/21 14:21:23;;;;;;;3.25;2.95;;;;;;;24.59;58.54;100290.44;10500286;28;20041;-70
2022/07/21 14:26:25;;;;;;;3.75;2.97;;;;;;;24.40;58.50;100293.00;10500378;28;20037;-69
2022/07/21 14:31:27;;;;;;;2.70;2.50;;;;;;;24.34;58.21;100275.53;10501115;28;20044;-69
2022/07/21 14:36:28;;;;;;;3.30;3.05;;;;;;;24.38;57.65;100260.03;10482076;28;20045;-69
2022/07/21 14:41:30;;;;;;;3.30;3.08;;;;;;;24.46;57.89;100254.84;10482300;28;20055;-69
2022/07/21 14:46:32;;;;;;;3.38;3.08;;;;;;;24.51;59.88;100273.25;10482442;28;20055;-70
2022/07/21 14:51:35;;;;;;;3.47;3.28;;;;;;;24.49;60.98;100267.19;10500839;28;20094;-70
2022/07/21 14:56:37;;;;;;;3.17;2.97;;;;;;;24.42;58.19;100256.94;10500073;28;20040;-70
2022/07/21 15:01:58;;;;;;;3.13;2.88;;;;;;;24.33;59.66;100251.47;10499991;28;20051;-70
2022/07/21 15:07:10;;;;;;;3.50;3.20;;;;;;;24.32;60.31;100237.19;10499150;28;20044;-70
2022/07/21 15:12:12;;;;;;;3.58;3.28;;;;;;;24.40;59.31;100248.19;10480653;28;20056;-70
2022/07/21 15:17:15;;;;;;;4.40;3.60;;;;;;;24.28;62.14;100237.59;10498491;28;20040;-70
2022/07/21 15:22:17;;;;;;;4.07;3.70;;;;;;;24.02;63.30;100229.91;10497538;28;20044;-71
2022/07/21 15:27:20;;;;;;;5.47;4.20;;;;;;;23.77;65.48;100238.34;10498055;28;20446;-71
2022/07/21 15:32:22;;;;;;;4.40;3.78;;;;;;;23.69;65.12;100230.09;10479561;28;20086;-71
2022/07/21 15:37:24;;;;;;;5.15;4.72;;;;;;;23.76;65.87;100228.59;10498604;28;20119;-71
2022/07/21 15:42:28;;;;;;;4.65;4.30;;;;;;;23.81;64.74;100231.72;10497923;28;20051;-71
2022/07/21 15:47:29;;;;;;;6.38;5.63;;;;;;;23.84;67.71;100234.16;10498102;28;20127;-70
2022/07/21 15:52:32;;;;;;;4.47;4.18;;;;;;;23.85;67.48;100206.34;10497823;28;20036;-71
2022/07/21 15:57:37;;;;;;;5.40;4.90;;;;;;;24.02;67.32;100213.81;10505143;28;20049;-71
2022/07/21 16:02:40;;;;;;;6.38;5.88;;;;;;;24.59;65.86;100207.13;10506433;28;20573;-71
2022/07/21 16:07:44;;;;;;;5.05;4.57;;;;;;;25.51;62.96;100196.22;10505795;28;20124;-71
2022/07/21 16:12:46;;;;;;;5.07;4.68;;;;;;;26.38;58.97;100188.03;10505786;28;20072;-72
2022/07/21 16:17:49;;;;;;;4.45;4.05;;;;;;;27.34;54.31;100185.06;10506399;28;20055;-71
2022/07/21 16:22:51;;;;;;;4.50;4.10;;;;;;;27.71;51.89;100179.50;10504992;28;20072;-71
2022/07/21 16:27:53;;;;;;;4.47;4.18;;;;;;;27.67;51.96;100170.03;10506937;28;20056;-71
2022/07/21 16:32:55;;;;;;;4.22;4.00;;;;;;;28.06;48.19;100154.31;10506434;28;20041;-71
2022/07/21 16:37:57;;;;;;;4.40;4.00;;;;;;;27.88;48.46;100153.50;10487297;28;20381;-72
2022/07/21 16:42:59;;;;;;;3.70;3.47;;;;;;;27.80;47.70;100143.50;10504262;28;20041;-71
2022/07/21 16:48:02;;;;;;;3.83;3.42;;;;;;;27.62;49.15;100132.69;10503800;28;20127;-71
2022/07/21 16:53:10;;;;;;;4.00;3.70;;;;;;;27.49;48.85;100139.47;10502926;28;20048;-71
2022/07/21 16:58:12;;;;;;;3.90;3.60;;;;;;;27.14;50.15;100128.56;10504152;28;20471;-72
2022/07/21 17:03:14;;;;;;;4.15;3.90;;;;;;;27.10;49.10;100118.22;10505150;28;20047;-70
2022/07/21 17:08:15;;;;;;;4.47;4.07;;;;;;;26.69;50.71;100116.88;10503512;28;20048;-70
2022/07/21 17:13:17;;;;;;;4.60;4.25;;;;;;;26.30;53.22;100109.78;10501791;28;20048;-70
2022/07/21 17:18:20;;;;;;;6.05;4.70;;;;;;;26.39;52.26;100108.06;10502707;28;20040;-70
2022/07/21 17:23:21;;;;;;;4.35;4.05;;;;;;;26.47;51.34;100104.63;10484059;28;20051;-70
2022/07/21 17:28:24;;;;;;;4.28;3.88;;;;;;;26.17;52.73;100098.50;10502660;28;20357;-70
2022/07/21 17:33:26;;;;;;;4.88;4.57;;;;;;;26.09;52.96;100095.69;10500835;28;20109;-69
2022/07/21 17:38:28;;;;;;;5.28;4.47;;;;;;;26.19;52.71;100092.94;10500984;28;20045;-70
2022/07/21 17:43:30;;;;;;;4.28;3.97;;;;;;;26.13;53.27;100099.78;10500852;28;20048;-70
2022/07/21 17:48:32;;;;;;;5.07;4.55;;;;;;;26.16;53.04;100097.66;10500854;28;20094;-70
2022/07/21 17:53:34;;;;;;;4.63;4.25;;;;;;;26.06;54.43;100086.03;10501537;28;20060;-70
2022/07/21 17:58:44;;;;;;;5.43;4.30;;;;;;;25.60;56.29;100097.63;10501567;28;20060;-70
2022/07/21 18:03:48;;;;;;;4.63;4.32;;;;;;;25.58;56.80;100096.88;10500202;28;20064;-70
2022/07/21 18:08:50;;;;;;;5.03;4.50;;;;;;;25.45;57.09;100102.56;10499528;28;20520;-70
2022/07/21 18:13:51;;;;;;;4.88;4.47;;;;;;;25.49;56.89;100093.22;10499404;28;20036;-70
2022/07/21 18:18:54;;;;;;;5.55;5.07;;;;;;;25.11;58.50;100094.94;10439752;28;20498;-70
2022/07/21 18:23:57;;;;;;;5.30;4.90;;;;;;;24.90;59.09;100092.31;10458242;28;20045;-68
2022/07/21 18:28:59;;;;;;;5.80;5.30;;;;;;;24.75;60.34;100093.72;10440644;28;20414;-69
2022/07/21 18:34:00;;;;;;;5.15;4.75;;;;;;;24.63;60.89;100101.03;10457380;28;20103;-69
2022/07/21 18:39:04;;;;;;;5.70;5.35;;;;;;;24.41;61.97;100091.34;10457801;28;20441;-69
2022/07/21 18:44:06;;;;;;;5.30;4.90;;;;;;;24.33;62.53;100103.72;10457407;28;20040;-68
2022/07/21 18:49:08;;;;;;;5.18;4.70;;;;;;;24.46;61.64;100112.44;10457595;28;20098;-68
2022/07/21 18:54:10;;;;;;;6.93;6.32;;;;;;;24.11;62.84;100120.88;10455950;28;20041;-69
2022/07/21 18:59:14;;;;;;;6.13;5.55;;;;;;;24.02;64.34;100122.53;10438889;28;20087;-68
2022/07/21 19:04:15;;;;;;;5.70;5.30;;;;;;;23.75;65.27;100119.53;10456180;28;20047;-69
2022/07/21 19:09:17;;;;;;;5.53;5.13;;;;;;;23.72;65.71;100117.09;10456628;28;20056;-68
2022/07/21 19:14:19;;;;;;;6.57;6.07;;;;;;;23.54;66.66;100123.00;10455371;28;20040;-68
2022/07/21 19:19:20;;;;;;;6.00;5.50;;;;;;;23.47;66.67;100132.56;10455722;28;20494;-68
2022/07/21 19:24:22;;;;;;;6.13;5.63;;;;;;;23.26;68.45;100137.88;10456367;28;20044;-69
2022/07/21 19:29:23;;;;;;;6.22;5.72;;;;;;;23.22;68.46;100138.28;10455078;28;20056;-69
2022/07/21 19:34:27;;;;;;;5.63;5.22;;;;;;;23.22;69.19;100138.28;10455620;28;20036;-68
2022/07/21 19:39:28;;;;;;;6.00;5.55;;;;;;;23.42;68.76;100138.31;10455221;28;20457;-68
2022/07/21 19:44:30;;;;;;;6.85;6.20;;;;;;;23.15;69.67;100141.47;10455290;28;20045;-68
2022/07/21 19:49:32;;;;;;;5.88;5.50;;;;;;;22.83;72.21;100138.69;10454847;28;20056;-69
2022/07/21 19:54:33;;;;;;;7.18;6.57;;;;;;;22.68;72.62;100137.28;10454651;28;20072;-69
2022/07/21 19:59:35;;;;;;;7.28;6.57;;;;;;;22.60;74.11;100139.72;10455544;28;20045;-69
2022/07/21 20:04:37;;;;;;;6.93;6.47;;;;;;;22.41;73.89;100143.00;10454905;28;20072;-70
2022/07/21 20:09:39;;;;;;;7.43;6.90;;;;;;;22.38;74.20;100135.22;10454576;28;20049;-70
2022/07/21 20:14:41;;;;;;;6.55;6.15;;;;;;;22.45;74.26;100143.63;10437406;28;20478;-69
2022/07/21 20:19:43;;;;;;;6.93;6.43;;;;;;;22.42;74.86;100142.88;10454475;28;20073;-70
2022/07/21 20:24:45;;;;;;;6.57;6.07;;;;;;;22.41;74.61;100141.19;10454558;28;20041;-70
2022/07/21 20:29:49;;;;;;;7.20;6.70;;;;;;;22.55;73.88;100142.75;10455247;28;20581;-68
2022/07/21 20:34:50;;;;;;;7.47;6.93;;;;;;;22.60;74.29;100140.56;10453954;28;20083;-69
2022/07/21 20:39:52;;;;;;;6.93;6.43;;;;;;;22.37;75.06;100147.75;10454530;28;20064;-69
2022/07/21 20:45:14;;;;;;;7.88;7.30;;;;;;;22.21;75.34;100139.22;10461961;28;20084;-69
2022/07/21 20:50:15;;;;;;;8.73;8.02;;;;;;;22.40;74.52;100149.31;10462118;28;20079;-69
2022/07/21 20:55:17;;;;;;;7.63;7.13;;;;;;;22.25;74.89;100158.56;10461537;28;20060;-68
2022/07/21 21:00:25;;;;;;;8.07;7.45;;;;;;;22.32;74.99;100144.59;10461324;28;20095;-68
2022/07/21 21:05:27;;;;;;;8.30;7.70;;;;;;;22.36;74.91;100146.06;10461015;28;20056;-69
2022/07/21 21:10:29;;;;;;;7.57;7.07;;;;;;;22.02;76.66;100142.44;10460773;28;20387;-69
2022/07/21 21:15:31;;;;;;;6.57;6.07;;;;;;;21.92;77.02;100139.63;10459967;28;20041;-67
2022/07/21 21:20:41;;;;;;;8.25;7.53;;;;;;;22.17;75.93;100151.97;10441758;28;20061;-69
2022/07/21 21:25:42;;;;;;;8.65;7.85;;;;;;;22.05;76.24;100147.56;10459766;28;20422;-67
2022/07/21 21:30:44;;;;;;;7.82;7.30;;;;;;;21.88;77.14;100150.69;10441642;28;20128;-68
2022/07/21 21:35:46;;;;;;;7.85;7.30;;;;;;;21.72;76.95;100151.00;10459196;28;20098;-68
2022/07/21 21:40:48;;;;;;;8.00;7.40;;;;;;;21.79;76.00;100146.91;10442155;28;20053;-68
2022/07/21 21:45:50;;;;;;;6.30;5.90;;;;;;;21.95;68.57;100149.22;10459811;28;20133;-68
2022/07/21 21:50:51;;;;;;;5.53;5.03;;;;;;;22.08;64.38;100141.13;10460355;28;20091;-68
2022/07/21 21:55:53;;;;;;;5.68;5.28;;;;;;;22.05;62.93;100142.22;10459226;28;20051;-68
2022/07/21 22:00:56;;;;;;;5.65;5.18;;;;;;;22.10;62.12;100150.75;10460187;28;20059;-68
2022/07/21 22:05:58;;;;;;;5.28;4.88;;;;;;;22.22;60.86;100143.59;10459311;28;20120;-67
2022/07/21 22:11:00;;;;;;;4.70;4.40;;;;;;;22.39;59.80;100152.97;10459408;28;20055;-68
2022/07/21 22:16:01;;;;;;;4.85;4.55;;;;;;;22.33;59.91;100151.63;10458804;28;20047;-68
2022/07/21 22:21:03;;;;;;;4.93;4.60;;;;;;;22.22;60.33;100164.16;10458653;28;20048;-68
2022/07/21 22:26:06;;;;;;;4.63;4.32;;;;;;;22.14;60.12;100164.78;10458372;28;20041;-68
2022/07/21 22:31:08;;;;;;;5.20;4.63;;;;;;;22.03;60.36;100172.75;10458600;28;20044;-68
2022/07/21 22:36:10;;;;;;;3.85;3.65;;;;;;;22.04;58.68;100172.59;10458150;28;20041;-68
2022/07/21 22:41:12;;;;;;;4.28;3.85;;;;;;;22.17;56.90;100180.59;10458483;28;20055;-68
2022/07/21 22:46:13;;;;;;;3.15;2.88;;;;;;;21.92;57.28;100182.47;10457684;28;20048;-68
2022/07/21 22:51:15;;;;;;;3.35;3.13;;;;;;;21.84;56.31;100184.00;10458710;28;20102;-68
2022/07/21 22:56:17;;;;;;;3.92;2.85;;;;;;;21.76;57.16;100184.59;10457246;28;20048;-68
2022/07/21 23:01:18;;;;;;;3.20;3.00;;;;;;;21.73;58.35;100190.16;10457545;28;20053;-68
2022/07/21 23:06:20;;;;;;;3.88;3.58;;;;;;;21.47;61.03;100189.47;10456470;28;20574;-68
2022/07/21 23:11:22;;;;;;;4.82;4.43;;;;;;;21.22;63.30;100202.91;10457006;28;20049;-68
2022/07/21 23:16:23;;;;;;;5.22;4.72;;;;;;;21.04;65.21;100194.41;10438945;28;20056;-68
2022/07/21 23:21:25;;;;;;;5.68;5.18;;;;;;;20.97;65.96;100190.47;10456078;28;20095;-68